createdAt,value
2019-06-20T00:01:18.452Z,39.27
2019-06-20T00:03:53.578Z,39.90
2019-06-20T00:06:29.495Z,39.10
2019-06-20T00:09:05.492Z,39.27
2019-06-20T00:11:40.535Z,39.05
2019-06-20T00:14:16.979Z,39.25
2019-06-20T00:16:51.748Z,38.30
2019-06-20T00:19:26.567Z,38.78
2019-06-20T00:22:01.400Z,38.63
2019-06-20T00:24:36.226Z,38.92
2019-06-20T00:27:11.951Z,39.00
2019-06-20T00:29:46.701Z,39.42
2019-06-20T00:32:21.564Z,39.03
2019-06-20T00:34:56.386Z,38.88
2019-06-20T00:37:31.375Z,39.30
2019-06-20T00:40:06.937Z,38.92
2019-06-20T00:42:41.839Z,38.40
2019-06-20T00:45:17.135Z,39.07
2019-06-20T00:47:51.975Z,38.75
2019-06-20T00:50:26.875Z,38.88
2019-06-20T00:53:01.755Z,38.75
2019-06-20T00:55:36.575Z,38.95
2019-06-20T00:58:11.427Z,38.90
2019-06-20T01:00:46.244Z,38.95
2019-06-20T01:03:21.087Z,38.95
2019-06-20T01:05:55.860Z,38.73
2019-06-20T01:08:30.619Z,39.38
2019-06-20T01:11:05.455Z,39.45
2019-06-20T01:13:40.281Z,38.70
2019-06-20T01:16:15.244Z,39.00
2019-06-20T01:18:49.988Z,40.05
2019-06-20T01:21:24.732Z,38.88
2019-06-20T01:23:59.563Z,39.35
2019-06-20T01:26:34.397Z,39.55
2019-06-20T01:29:09.134Z,39.15
2019-06-20T01:31:44.121Z,39.08
2019-06-20T01:34:18.857Z,39.27
2019-06-20T01:36:53.705Z,39.27
2019-06-20T01:39:29.498Z,38.78
2019-06-20T01:42:04.402Z,38.85
2019-06-20T01:44:40.195Z,38.85
2019-06-20T01:47:15.051Z,39.13
2019-06-20T01:49:49.869Z,39.23
2019-06-20T01:52:24.810Z,38.92
2019-06-20T01:54:59.547Z,39.10
2019-06-20T01:57:34.314Z,38.83
2019-06-20T02:00:10.338Z,38.73
2019-06-20T02:02:45.166Z,38.48
2019-06-20T02:05:20.062Z,38.83
2019-06-20T02:07:54.819Z,38.55
2019-06-20T02:10:29.634Z,38.28
2019-06-20T02:13:04.602Z,38.67
2019-06-20T02:15:39.503Z,39.40
2019-06-20T02:18:14.344Z,38.80
2019-06-20T02:20:52.107Z,39.42
2019-06-20T02:23:27.552Z,39.38
2019-06-20T02:26:02.602Z,38.98
2019-06-20T02:28:37.517Z,38.60
2019-06-20T02:31:12.328Z,39.13
2019-06-20T02:33:47.193Z,39.53
2019-06-20T02:36:22.076Z,38.73
2019-06-20T02:38:56.917Z,38.67
2019-06-20T02:41:31.788Z,38.70
2019-06-20T02:44:24.765Z,39.20
2019-06-20T02:46:43.468Z,38.85
2019-06-20T02:49:19.599Z,39.05
2019-06-20T02:51:54.805Z,39.40
2019-06-20T02:54:30.554Z,38.55
2019-06-20T02:57:05.459Z,39.73
2019-06-20T02:59:40.380Z,39.27
2019-06-20T03:02:15.304Z,38.73
2019-06-20T03:04:50.217Z,38.78
2019-06-20T03:07:25.019Z,38.75
2019-06-20T03:10:00.819Z,38.50
2019-06-20T03:12:35.763Z,39.88
2019-06-20T03:15:10.685Z,39.65
2019-06-20T03:17:45.631Z,39.38
2019-06-20T03:20:20.527Z,38.93
2019-06-20T03:22:55.331Z,38.95
2019-06-20T03:25:30.328Z,39.23
2019-06-20T03:28:05.680Z,38.70
2019-06-20T03:30:40.520Z,39.23
2019-06-20T03:33:15.436Z,38.80
2019-06-20T03:35:51.324Z,39.30
2019-06-20T03:38:26.166Z,38.95
2019-06-20T03:41:01.165Z,38.92
2019-06-20T03:43:35.934Z,39.00
2019-06-20T03:46:10.760Z,38.55
2019-06-20T03:48:45.689Z,39.33
2019-06-20T03:51:20.564Z,38.78
2019-06-20T03:53:55.347Z,39.18
2019-06-20T03:56:30.118Z,39.48
2019-06-20T03:59:05.992Z,38.98
2019-06-20T04:01:40.849Z,39.08
2019-06-20T04:04:15.667Z,38.78
2019-06-20T04:06:50.587Z,38.67
2019-06-20T04:09:25.588Z,39.35
2019-06-20T04:12:00.425Z,39.18
2019-06-20T04:14:35.283Z,39.15
2019-06-20T04:17:10.050Z,39.40
2019-06-20T04:19:44.816Z,38.63
2019-06-20T04:22:19.643Z,39.50
2019-06-20T04:24:54.412Z,39.25
2019-06-20T04:27:29.246Z,38.90
2019-06-20T04:30:04.318Z,39.23
2019-06-20T04:32:39.141Z,39.05
2019-06-20T04:35:14.066Z,39.27
2019-06-20T04:37:49.073Z,39.70
2019-06-20T04:40:24.115Z,39.27
2019-06-20T04:42:58.952Z,38.98
2019-06-20T04:45:45.760Z,38.83
2019-06-20T04:48:20.664Z,39.10
2019-06-20T04:50:55.499Z,38.35
2019-06-20T04:53:30.355Z,38.48
2019-06-20T04:56:05.891Z,38.75
2019-06-20T04:58:40.906Z,38.75
2019-06-20T05:01:15.743Z,38.98
2019-06-20T05:03:50.576Z,38.50
2019-06-20T05:06:25.414Z,38.67
2019-06-20T05:09:00.397Z,39.23
2019-06-20T05:11:35.303Z,38.83
2019-06-20T05:14:10.151Z,38.63
2019-06-20T05:16:44.910Z,39.03
2019-06-20T05:19:19.741Z,38.40
2019-06-20T05:21:54.568Z,39.03
2019-06-20T05:24:29.485Z,37.95
2019-06-20T05:27:04.398Z,39.55
2019-06-20T05:29:39.257Z,38.65
2019-06-20T05:32:14.413Z,38.65
2019-06-20T05:34:49.293Z,38.60
2019-06-20T05:37:25.008Z,38.83
2019-06-20T05:39:59.919Z,38.50
2019-06-20T05:42:34.806Z,39.18
2019-06-20T05:45:10.896Z,38.73
2019-06-20T05:47:45.800Z,38.90
2019-06-20T05:50:21.017Z,38.83
2019-06-20T05:52:55.968Z,38.30
2019-06-20T05:55:30.805Z,38.67
2019-06-20T06:00:44.523Z,39.33
2019-06-20T06:03:19.529Z,39.08
2019-06-20T06:05:55.350Z,39.20
2019-06-20T06:08:30.110Z,38.92
2019-06-20T06:11:05.264Z,39.15
2019-06-20T06:13:40.019Z,39.08
2019-06-20T06:16:25.702Z,39.18
2019-06-20T06:18:51.244Z,39.23
2019-06-20T06:21:26.099Z,39.27
2019-06-20T06:24:00.925Z,38.70
2019-06-20T06:26:35.791Z,39.20
2019-06-20T06:29:10.588Z,39.38
2019-06-20T06:31:45.431Z,39.38
2019-06-20T06:34:22.074Z,39.30
2019-06-20T06:36:56.832Z,38.70
2019-06-20T06:39:31.857Z,39.58
2019-06-20T06:42:13.673Z,39.13
2019-06-20T06:45:14.142Z,39.15
2019-06-20T06:47:49.742Z,39.30
2019-06-20T06:50:24.835Z,39.53
2019-06-20T06:53:05.254Z,39.78
2019-06-20T06:55:41.890Z,39.25
2019-06-20T06:58:16.827Z,39.25
2019-06-20T07:00:51.755Z,39.75
2019-06-20T07:03:26.533Z,39.90
2019-06-20T07:06:01.305Z,39.70
2019-06-20T07:08:36.264Z,40.67
2019-06-20T07:11:11.285Z,39.18
2019-06-20T07:13:46.110Z,39.25
2019-06-20T07:16:21.100Z,39.67
2019-06-20T07:18:55.859Z,39.15
2019-06-20T07:21:30.758Z,40.00
2019-06-20T07:24:14.788Z,40.05
2019-06-20T07:26:50.664Z,39.05
2019-06-20T07:29:25.704Z,39.55
2019-06-20T07:32:05.796Z,40.28
2019-06-20T07:34:41.235Z,39.58
2019-06-20T07:37:16.105Z,40.48
2019-06-20T07:39:51.026Z,40.65
2019-06-20T07:42:25.983Z,40.45
2019-06-20T07:45:00.845Z,40.25
2019-06-20T07:47:35.872Z,39.63
2019-06-20T07:50:12.060Z,39.75
2019-06-20T07:53:00.818Z,40.38
2019-06-20T07:55:23.790Z,40.03
2019-06-20T07:57:58.675Z,39.70
2019-06-20T08:00:34.019Z,40.12
2019-06-20T08:03:08.965Z,39.67
2019-06-20T08:05:43.803Z,39.73
2019-06-20T08:08:18.929Z,40.03
2019-06-20T08:10:54.977Z,40.38
2019-06-20T08:13:29.892Z,40.25
2019-06-20T08:16:04.904Z,41.53
2019-06-20T08:18:39.904Z,40.43
2019-06-20T08:21:14.969Z,40.78
2019-06-20T08:23:50.013Z,41.00
2019-06-20T08:26:24.984Z,40.43
2019-06-20T08:29:15.547Z,39.83
2019-06-20T08:31:36.404Z,39.70
2019-06-20T08:34:11.187Z,40.30
2019-06-20T08:36:46.145Z,39.90
2019-06-20T08:39:21.037Z,39.80
2019-06-20T08:41:57.139Z,40.30
2019-06-20T08:44:32.773Z,40.12
2019-06-20T08:47:07.720Z,40.65
2019-06-20T08:49:42.493Z,40.28
2019-06-20T08:52:17.453Z,40.08
2019-06-20T08:54:52.614Z,40.03
2019-06-20T08:57:27.580Z,40.03
2019-06-20T09:02:37.568Z,40.58
2019-06-20T09:05:13.621Z,40.30
2019-06-20T09:07:48.561Z,39.85
2019-06-20T09:10:27.886Z,40.73
2019-06-20T09:13:03.782Z,40.08
2019-06-20T09:15:38.865Z,39.83
2019-06-20T09:18:13.798Z,40.43
2019-06-20T09:20:48.734Z,40.43
2019-06-20T09:23:23.687Z,40.48
2019-06-20T09:25:59.645Z,40.35
2019-06-20T09:28:34.823Z,40.00
2019-06-20T09:31:09.693Z,40.50
2019-06-20T09:33:44.475Z,40.45
2019-06-20T09:36:19.417Z,40.30
2019-06-20T09:38:55.118Z,40.10
2019-06-20T09:41:30.051Z,40.25
2019-06-20T09:44:05.424Z,39.92
2019-06-20T09:46:41.372Z,40.33
2019-06-20T09:49:16.211Z,40.20
2019-06-20T09:51:52.146Z,40.12
2019-06-20T09:54:27.123Z,40.35
2019-06-20T09:57:01.921Z,40.28
2019-06-20T09:59:36.883Z,40.30
2019-06-20T10:02:11.877Z,40.12
2019-06-20T10:04:47.846Z,40.20
2019-06-20T10:07:23.380Z,40.75
2019-06-20T10:09:58.402Z,40.15
2019-06-20T10:12:33.293Z,41.02
2019-06-20T10:15:15.351Z,41.15
2019-06-20T10:17:50.422Z,40.65
2019-06-20T10:20:26.931Z,40.23
2019-06-20T10:23:02.880Z,41.00
2019-06-20T10:25:38.267Z,40.52
2019-06-20T10:28:14.408Z,40.80
2019-06-20T10:30:49.245Z,40.30
2019-06-20T10:33:24.171Z,40.12
2019-06-20T10:35:59.018Z,40.30
2019-06-20T10:38:33.855Z,39.73
2019-06-20T10:41:08.752Z,40.50
2019-06-20T10:43:44.689Z,40.65
2019-06-20T10:46:20.627Z,40.50
2019-06-20T10:48:55.847Z,40.17
2019-06-20T10:51:55.883Z,39.80
2019-06-20T10:54:33.004Z,40.45
2019-06-20T10:57:07.971Z,40.52
2019-06-20T10:59:44.219Z,40.30
2019-06-20T11:02:19.270Z,40.88
2019-06-20T11:04:54.081Z,40.17
2019-06-20T11:07:29.034Z,39.85
2019-06-20T11:10:05.909Z,40.40
2019-06-20T11:12:47.928Z,39.75
2019-06-20T11:15:21.341Z,40.00
2019-06-20T11:17:57.017Z,39.92
2019-06-20T11:20:32.283Z,39.92
2019-06-20T11:23:07.192Z,39.85
2019-06-20T11:25:43.679Z,40.48
2019-06-20T11:28:18.801Z,40.23
2019-06-20T11:30:59.894Z,40.65
2019-06-20T11:33:30.431Z,40.10
2019-06-20T11:36:05.555Z,40.35
2019-06-20T11:38:40.727Z,40.75
2019-06-20T11:41:15.651Z,40.50
2019-06-20T11:43:50.640Z,41.25
2019-06-20T11:46:25.648Z,41.15
2019-06-20T11:49:00.987Z,40.63
2019-06-20T11:51:36.032Z,41.18
2019-06-20T11:54:10.944Z,40.95
2019-06-20T11:56:45.860Z,40.00
2019-06-20T11:59:20.883Z,40.43
2019-06-20T12:01:55.820Z,40.55
2019-06-20T12:04:30.675Z,41.50
2019-06-20T12:07:05.580Z,41.48
2019-06-20T12:09:40.930Z,40.10
2019-06-20T12:12:16.173Z,39.98
2019-06-20T12:14:51.065Z,40.83
2019-06-20T12:17:25.903Z,40.45
2019-06-20T12:20:00.824Z,40.17
2019-06-20T12:22:39.955Z,40.00
2019-06-20T12:25:34.704Z,40.47
2019-06-20T12:28:12.911Z,40.03
2019-06-20T12:30:59.710Z,39.83
2019-06-20T12:33:34.720Z,40.23
2019-06-20T12:36:09.737Z,39.88
2019-06-20T12:38:46.144Z,39.60
2019-06-20T12:41:23.701Z,39.60
2019-06-20T12:43:58.592Z,39.90
2019-06-20T12:46:33.439Z,40.23
2019-06-20T12:49:08.283Z,40.03
2019-06-20T12:51:44.595Z,39.98
2019-06-20T12:54:25.495Z,40.58
2019-06-20T12:57:01.199Z,40.12
2019-06-20T12:59:41.328Z,40.10
2019-06-20T13:02:16.399Z,39.75
2019-06-20T13:04:51.437Z,39.83
2019-06-20T13:07:26.412Z,40.12
2019-06-20T13:10:20.641Z,40.55
2019-06-20T13:12:55.500Z,40.25
2019-06-20T13:15:30.434Z,39.48
2019-06-20T13:18:05.324Z,39.73
2019-06-20T13:20:40.631Z,39.65
2019-06-20T13:23:16.018Z,39.42
2019-06-20T13:25:51.097Z,40.40
2019-06-20T13:28:25.935Z,39.42
2019-06-20T13:31:07.868Z,39.55
2019-06-20T13:33:44.686Z,38.88
2019-06-20T13:36:19.703Z,38.88
2019-06-20T13:38:54.759Z,38.92
2019-06-20T13:41:29.855Z,38.50
2019-06-20T13:44:05.292Z,39.33
2019-06-20T13:46:41.453Z,39.95
2019-06-20T13:49:16.721Z,38.85
2019-06-20T13:51:51.494Z,38.75
2019-06-20T13:54:26.335Z,39.85
2019-06-20T13:57:01.128Z,39.60
2019-06-20T13:59:36.027Z,38.63
2019-06-20T14:02:10.947Z,39.18
2019-06-20T14:04:46.523Z,39.33
2019-06-20T14:07:21.421Z,39.25
2019-06-20T14:09:56.213Z,39.73
2019-06-20T14:12:31.168Z,39.30
2019-06-20T14:15:07.032Z,39.58
2019-06-20T14:17:43.235Z,39.53
2019-06-20T14:20:18.599Z,39.92
2019-06-20T14:22:54.687Z,40.63
2019-06-20T14:25:29.663Z,39.18
2019-06-20T14:28:04.648Z,39.20
2019-06-20T14:30:39.714Z,39.18
2019-06-20T14:33:14.799Z,40.25
2019-06-20T14:35:51.210Z,39.90
2019-06-20T14:38:26.482Z,39.45
2019-06-20T14:41:01.351Z,39.45
2019-06-20T14:43:36.110Z,39.45
2019-06-20T14:46:11.145Z,39.53
2019-06-20T14:48:47.309Z,39.67
2019-06-20T14:51:22.663Z,39.60
2019-06-20T14:53:57.635Z,39.80
2019-06-20T14:56:32.544Z,39.20
2019-06-20T14:59:08.466Z,40.08
2019-06-20T15:01:44.621Z,39.23
2019-06-20T15:04:21.076Z,39.70
2019-06-20T15:06:56.101Z,40.08
2019-06-20T15:09:31.011Z,39.85
2019-06-20T15:12:05.868Z,39.83
2019-06-20T15:14:40.762Z,38.98
2019-06-20T15:17:15.915Z,39.63
2019-06-20T15:20:05.158Z,39.25
2019-06-20T15:22:34.796Z,39.92
2019-06-20T15:25:10.108Z,39.73
2019-06-20T15:27:48.110Z,40.30
2019-06-20T15:30:22.618Z,39.67
2019-06-20T15:33:07.868Z,39.83
2019-06-20T15:35:34.092Z,40.17
2019-06-20T15:38:08.953Z,39.55
2019-06-20T15:40:43.866Z,39.88
2019-06-20T15:43:18.796Z,40.20
2019-06-20T15:45:53.923Z,39.73
2019-06-20T15:48:29.715Z,40.17
2019-06-20T15:51:04.723Z,40.17
2019-06-20T15:53:39.683Z,39.75
2019-06-20T15:56:14.461Z,39.42
2019-06-20T15:58:49.426Z,39.58
2019-06-20T16:01:24.349Z,39.75
2019-06-20T16:03:59.383Z,39.40
2019-06-20T16:06:38.865Z,40.55
2019-06-20T16:09:14.236Z,39.63
2019-06-20T16:11:49.239Z,39.85
2019-06-20T16:14:24.038Z,40.38
2019-06-20T16:17:04.339Z,40.38
2019-06-20T16:19:39.074Z,39.55
2019-06-20T16:22:13.872Z,39.60
2019-06-20T16:24:48.650Z,39.83
2019-06-20T16:27:24.446Z,40.38
2019-06-20T16:29:59.395Z,39.40
2019-06-20T16:32:34.222Z,39.75
2019-06-20T16:35:09.357Z,40.17
2019-06-20T16:37:44.226Z,40.20
2019-06-20T16:40:27.041Z,40.40
2019-06-20T16:43:01.963Z,39.75
2019-06-20T16:45:40.733Z,40.60
2019-06-20T16:48:16.487Z,40.65
2019-06-20T16:50:51.417Z,40.30
2019-06-20T16:53:26.338Z,40.40
2019-06-20T16:56:01.468Z,40.52
2019-06-20T16:58:36.361Z,41.30
2019-06-20T17:01:11.540Z,40.78
2019-06-20T17:03:46.676Z,40.58
2019-06-20T17:06:21.888Z,40.45
2019-06-20T17:08:56.904Z,40.67
2019-06-20T17:11:31.663Z,40.08
2019-06-20T17:14:07.757Z,41.28
2019-06-20T17:16:42.740Z,40.75
2019-06-20T17:19:23.080Z,40.17
2019-06-20T17:22:00.442Z,40.38
2019-06-20T17:24:35.412Z,40.00
2019-06-20T17:27:18.375Z,41.28
2019-06-20T17:30:01.455Z,41.30
2019-06-20T17:32:37.398Z,40.48
2019-06-20T17:35:12.921Z,40.67
2019-06-20T17:37:47.875Z,41.02
2019-06-20T17:40:23.019Z,40.67
2019-06-20T17:43:01.541Z,41.00
2019-06-20T17:45:37.539Z,40.05
2019-06-20T17:48:12.907Z,40.40
2019-06-20T17:50:52.387Z,40.20
2019-06-20T17:53:38.274Z,41.53
2019-06-20T17:56:13.826Z,40.10
2019-06-20T17:58:48.700Z,41.08
2019-06-20T18:01:23.563Z,40.90
2019-06-20T18:04:12.924Z,40.80
2019-06-20T18:06:34.963Z,40.30
2019-06-20T18:09:10.491Z,40.55
2019-06-20T18:11:51.877Z,40.30
2019-06-20T18:14:27.105Z,40.17
2019-06-20T18:17:05.422Z,40.88
2019-06-20T18:19:40.207Z,40.23
2019-06-20T18:22:14.996Z,40.40
2019-06-20T18:24:49.905Z,40.48
2019-06-20T18:27:24.837Z,40.28
2019-06-20T18:29:59.724Z,40.78
2019-06-20T18:32:34.676Z,40.67
2019-06-20T18:35:09.932Z,40.90
2019-06-20T18:37:44.771Z,40.43
2019-06-20T18:40:20.041Z,40.73
2019-06-20T18:42:55.160Z,41.68
2019-06-20T18:45:30.380Z,41.10
2019-06-20T18:48:24.385Z,40.90
2019-06-20T18:50:59.379Z,41.42
2019-06-20T18:53:36.510Z,40.60
2019-06-20T18:56:11.480Z,41.15
2019-06-20T18:58:46.435Z,40.75
2019-06-20T19:01:22.354Z,41.77
2019-06-20T19:03:58.460Z,41.85
2019-06-20T19:06:36.263Z,40.63
2019-06-20T19:09:10.520Z,40.63
2019-06-20T19:11:45.435Z,41.23
2019-06-20T19:14:20.415Z,40.98
2019-06-20T19:16:55.355Z,40.98
2019-06-20T19:19:30.331Z,40.50
2019-06-20T19:22:05.287Z,39.95
2019-06-20T19:24:43.270Z,40.40
2019-06-20T19:27:18.049Z,40.78
2019-06-20T19:29:53.075Z,41.02
2019-06-20T19:32:28.097Z,40.63
2019-06-20T19:35:03.023Z,39.85
2019-06-20T19:37:38.154Z,40.55
2019-06-20T19:40:13.719Z,40.30
2019-06-20T19:42:48.489Z,40.40
2019-06-20T19:45:25.247Z,40.28
2019-06-20T19:48:00.176Z,39.92
2019-06-20T19:50:35.106Z,39.90
2019-06-20T19:53:11.525Z,40.52
2019-06-20T19:55:46.771Z,39.92
2019-06-20T19:58:21.687Z,39.88
2019-06-20T20:00:56.659Z,40.45
2019-06-20T20:03:31.630Z,39.85
2019-06-20T20:06:06.573Z,40.23
2019-06-20T20:08:41.508Z,39.78
2019-06-20T20:11:16.364Z,39.95
2019-06-20T20:13:51.195Z,39.80
2019-06-20T20:16:27.097Z,40.58
2019-06-20T20:19:01.948Z,39.73
2019-06-20T20:21:36.864Z,39.75
2019-06-20T20:24:11.775Z,39.98
2019-06-20T20:26:46.836Z,39.73
2019-06-20T20:29:21.915Z,39.80
2019-06-20T20:31:56.970Z,39.70
2019-06-20T20:34:31.831Z,39.88
2019-06-20T20:37:06.731Z,40.65
2019-06-20T20:39:41.562Z,39.38
2019-06-20T20:42:17.814Z,40.30
2019-06-20T20:44:52.771Z,39.90
2019-06-20T20:47:28.586Z,39.30
2019-06-20T20:50:05.099Z,39.78
2019-06-20T20:52:39.940Z,39.55
2019-06-20T20:55:16.711Z,39.60
2019-06-20T20:57:51.553Z,39.50
2019-06-20T21:00:28.471Z,40.12
2019-06-20T21:03:03.318Z,40.08
2019-06-20T21:05:50.636Z,40.33
2019-06-20T21:08:14.743Z,39.95
2019-06-20T21:10:49.632Z,39.05
2019-06-20T21:13:24.488Z,39.65
2019-06-20T21:15:59.256Z,39.78
2019-06-20T21:18:34.085Z,39.20
2019-06-20T21:21:09.992Z,39.40
2019-06-20T21:23:44.914Z,39.90
2019-06-20T21:26:19.816Z,39.27
2019-06-20T21:28:54.597Z,39.60
2019-06-20T21:31:29.348Z,39.13
2019-06-20T21:34:04.259Z,39.03
2019-06-20T21:36:39.096Z,40.05
2019-06-20T21:39:13.963Z,39.53
2019-06-20T21:41:48.747Z,39.70
2019-06-20T21:44:24.163Z,40.20
2019-06-20T21:46:59.054Z,40.00
2019-06-20T21:49:33.896Z,39.35
2019-06-20T21:52:08.740Z,39.45
2019-06-20T21:54:43.515Z,39.80
2019-06-20T21:57:18.369Z,39.63
2019-06-20T21:59:53.196Z,39.23
2019-06-20T22:02:28.551Z,39.60
2019-06-20T22:05:03.623Z,39.63
2019-06-20T22:07:38.727Z,41.08
2019-06-20T22:10:14.708Z,39.63
2019-06-20T22:12:49.635Z,39.15
2019-06-20T22:15:24.646Z,39.17
2019-06-20T22:17:59.628Z,39.20
2019-06-20T22:20:34.556Z,38.92
2019-06-20T22:23:09.468Z,38.90
2019-06-20T22:25:44.423Z,39.10
2019-06-20T22:28:19.369Z,39.00
2019-06-20T22:30:55.119Z,39.23
2019-06-20T22:33:29.896Z,39.03
2019-06-20T22:36:04.859Z,39.70
2019-06-20T22:38:39.707Z,39.40
2019-06-20T22:41:16.807Z,39.78
2019-06-20T22:43:51.710Z,39.13
2019-06-20T22:46:27.682Z,39.25
2019-06-20T22:49:02.521Z,39.05
2019-06-20T22:51:37.531Z,39.33
2019-06-20T22:54:12.372Z,38.78
2019-06-20T22:56:47.139Z,39.42
2019-06-20T22:59:21.973Z,38.98
2019-06-20T23:01:56.830Z,38.92
2019-06-20T23:04:31.594Z,39.42
2019-06-20T23:07:06.501Z,39.33
2019-06-20T23:09:41.416Z,38.98
2019-06-20T23:12:16.243Z,38.60
2019-06-20T23:14:51.091Z,39.03
2019-06-20T23:17:26.033Z,38.88
2019-06-20T23:20:01.057Z,38.75
2019-06-20T23:22:36.328Z,38.60
2019-06-20T23:25:12.913Z,38.80
2019-06-20T23:27:47.756Z,38.60
2019-06-20T23:30:22.769Z,38.73
2019-06-20T23:32:57.615Z,38.42
2019-06-20T23:35:32.384Z,39.00
2019-06-20T23:38:07.319Z,38.78
2019-06-20T23:40:42.441Z,39.18
2019-06-20T23:43:17.292Z,39.23
2019-06-20T23:45:52.215Z,39.10
2019-06-20T23:48:26.984Z,39.48
2019-06-20T23:51:01.776Z,39.27
2019-06-20T23:53:36.571Z,38.98
2019-06-20T23:56:11.392Z,38.58
2019-06-20T23:58:46.348Z,38.60
